Time;durP1;ratioP1;P1;durP2;ratioP2;P2;SDS_P1;SDS_P2;PMS_P1;PMS_P2;Temp;Humidity;BMP_temperature;BMP_pressure;BME280_temperature;BME280_humidity;BME280_pressure;Samples;Min_cycle;Max_cycle;Signal;HPM_P1;HPM_P2
2022/12/09 00:01:17;;;;;;;19.03;15.07;;;1.70;99.90;;;;;;5074546;28;20265;-74
2022/12/09 00:03:43;;;;;;;17.17;15.13;;;1.80;99.90;;;;;;5075426;28;20174;-74
2022/12/09 00:06:14;;;;;;;20.47;15.10;;;1.90;99.90;;;;;;5075761;28;20181;-74
2022/12/09 00:08:39;;;;;;;17.40;14.50;;;1.80;99.90;;;;;;5075475;28;20535;-74
2022/12/09 00:11:06;;;;;;;18.47;15.17;;;1.60;99.90;;;;;;5074414;28;20185;-74
2022/12/09 00:13:32;;;;;;;19.20;15.27;;;1.50;99.90;;;;;;5074269;28;20180;-74
2022/12/09 00:15:58;;;;;;;19.40;15.20;;;1.50;99.90;;;;;;5074236;28;20232;-74
2022/12/09 00:18:24;;;;;;;21.20;15.57;;;1.40;99.90;;;;;;5074102;28;20656;-74
2022/12/09 00:20:49;;;;;;;18.43;15.27;;;1.40;99.90;;;;;;5074507;28;20177;-74
2022/12/09 00:23:15;;;;;;;19.00;15.27;;;1.50;99.90;;;;;;5074113;28;20180;-74
2022/12/09 00:25:41;;;;;;;17.73;15.20;;;1.50;99.90;;;;;;5074062;28;20276;-74
2022/12/09 00:28:06;;;;;;;18.80;15.63;;;1.60;99.90;;;;;;5074871;28;20201;-74
2022/12/09 00:30:32;;;;;;;20.53;14.97;;;1.60;99.90;;;;;;5073886;28;20185;-74
2022/12/09 00:32:57;;;;;;;19.13;15.30;;;1.50;99.90;;;;;;5074218;28;20276;-74
2022/12/09 00:35:23;;;;;;;19.90;15.70;;;1.50;99.90;;;;;;5073812;28;20197;-74
2022/12/09 00:37:48;;;;;;;20.67;14.83;;;1.60;99.90;;;;;;5074099;28;20193;-74
2022/12/09 00:40:14;;;;;;;20.60;14.37;;;1.70;99.90;;;;;;5074173;28;20245;-74
2022/12/09 00:42:40;;;;;;;18.90;15.70;;;1.60;99.90;;;;;;5073760;28;20184;-74
2022/12/09 00:45:06;;;;;;;20.67;15.47;;;1.60;99.90;;;;;;5074911;28;20224;-74
2022/12/09 00:47:32;;;;;;;17.67;14.60;;;1.50;99.90;;;;;;5073514;28;20204;-74
2022/12/09 00:49:58;;;;;;;19.03;15.43;;;1.50;99.90;;;;;;5073630;28;20201;-74
2022/12/09 00:52:24;;;;;;;17.97;14.50;;;1.40;99.90;;;;;;5074770;28;20268;-74
2022/12/09 00:54:49;;;;;;;19.83;15.23;;;1.30;99.90;;;;;;5073641;28;20296;-74
2022/12/09 00:57:15;;;;;;;20.30;15.97;;;1.30;99.90;;;;;;5073545;28;20193;-74
2022/12/09 00:59:41;;;;;;;20.10;15.20;;;1.20;99.90;;;;;;5074921;28;20170;-74
2022/12/09 01:02:06;;;;;;;18.03;14.63;;;1.20;99.90;;;;;;5073364;28;20170;-74
2022/12/09 01:04:32;;;;;;;21.43;14.50;;;1.20;99.90;;;;;;5073745;28;20174;-74
2022/12/09 01:06:57;;;;;;;17.37;14.00;;;1.10;99.90;;;;;;5074583;28;20259;-74
2022/12/09 01:09:23;;;;;;;18.10;13.63;;;1.20;99.90;;;;;;5073796;28;20177;-74
2022/12/09 01:11:48;;;;;;;17.80;14.30;;;1.30;99.90;;;;;;5073192;28;20173;-74
2022/12/09 01:14:14;;;;;;;19.90;15.23;;;1.30;99.90;;;;;;5073162;28;20180;-74
2022/12/09 01:16:40;;;;;;;21.93;16.50;;;1.20;99.90;;;;;;5074468;28;20250;-74
2022/12/09 01:19:09;;;;;;;22.87;16.17;;;1.00;99.90;;;;;;5073160;28;20231;-74
2022/12/09 01:21:35;;;;;;;24.07;16.57;;;1.00;99.90;;;;;;5074558;28;20188;-74
2022/12/09 01:24:04;;;;;;;23.47;16.07;;;1.10;99.90;;;;;;5074488;28;20174;-74
2022/12/09 01:26:30;;;;;;;19.00;15.97;;;1.20;99.90;;;;;;5073464;28;20173;-74
2022/12/09 01:28:56;;;;;;;18.77;14.83;;;1.20;99.90;;;;;;5074033;28;20196;-74
2022/12/09 01:31:23;;;;;;;21.43;16.67;;;1.20;99.90;;;;;;5074406;28;20170;-74
2022/12/09 01:33:50;;;;;;;20.80;15.83;;;1.20;99.90;;;;;;5074155;28;20178;-74
2022/12/09 01:36:19;;;;;;;20.03;15.80;;;1.10;99.90;;;;;;5073119;28;20690;-74
2022/12/09 01:38:45;;;;;;;22.43;16.70;;;1.00;99.90;;;;;;5073569;28;20189;-74
2022/12/09 01:41:11;;;;;;;20.70;16.20;;;1.00;99.90;;;;;;5072506;28;20218;-74
2022/12/09 01:43:38;;;;;;;18.87;15.23;;;0.90;99.90;;;;;;5074202;28;20656;-74
2022/12/09 01:46:04;;;;;;;18.87;14.70;;;0.90;99.90;;;;;;5090396;28;20181;-74
2022/12/09 01:48:33;;;;;;;20.87;15.97;;;0.90;99.90;;;;;;5073772;28;20282;-74
2022/12/09 01:51:03;;;;;;;24.20;16.07;;;0.90;99.90;;;;;;5073265;28;20197;-74
2022/12/09 01:53:32;;;;;;;23.83;16.33;;;1.00;99.90;;;;;;5073988;28;20185;-74
2022/12/09 01:56:04;;;;;;;19.40;15.73;;;0.90;99.90;;;;;;5072338;28;20208;-74
2022/12/09 01:58:29;;;;;;;21.17;16.33;;;0.80;99.90;;;;;;5072397;28;20194;-74
2022/12/09 02:00:55;;;;;;;23.83;17.17;;;0.70;99.90;;;;;;5072777;28;20182;-74
2022/12/09 02:03:21;;;;;;;23.73;17.63;;;0.60;99.90;;;;;;5072763;28;20570;-74
2022/12/09 02:05:47;;;;;;;24.07;18.57;;;0.50;99.90;;;;;;5073825;28;20264;-74
2022/12/09 02:08:15;;;;;;;23.90;17.43;;;0.40;99.90;;;;;;5073556;28;20193;-74
2022/12/09 02:10:54;;;;;;;21.70;16.37;;;0.50;99.90;;;;;;5073241;28;20204;-74
2022/12/09 02:13:41;;;;;;;22.97;17.07;;;0.40;99.90;;;;;;5072380;28;20177;-74
2022/12/09 02:16:11;;;;;;;24.00;18.30;;;0.40;99.90;;;;;;5072750;28;20212;-74
2022/12/09 02:19:10;;;;;;;30.60;22.53;;;0.40;99.90;;;;;;5072137;28;20204;-74
2022/12/09 02:22:02;;;;;;;31.20;22.00;;;0.30;99.90;;;;;;5073134;28;20192;-74
2022/12/09 02:24:51;;;;;;;34.50;22.20;;;0.30;99.90;;;;;;5068997;28;20200;-74
2022/12/09 02:27:22;;;;;;;28.87;20.50;;;0.30;99.90;;;;;;5072836;28;20203;-74
2022/12/09 02:30:02;;;;;;;28.20;19.83;;;0.30;99.90;;;;;;5074242;28;20522;-74
2022/12/09 02:32:36;;;;;;;25.80;19.30;;;0.30;99.90;;;;;;5073348;28;20161;-74
2022/12/09 02:35:23;;;;;;;27.37;21.23;;;0.30;99.90;;;;;;5072026;28;20202;-74
2022/12/09 02:38:13;;;;;;;25.73;19.10;;;0.30;99.90;;;;;;5072085;28;20288;-74
2022/12/09 02:40:59;;;;;;;25.80;19.33;;;0.30;99.90;;;;;;5072153;28;20172;-74
2022/12/09 02:43:32;;;;;;;25.63;18.90;;;0.40;99.90;;;;;;5072846;28;20657;-74
2022/12/09 02:45:59;;;;;;;20.60;16.50;;;0.40;99.90;;;;;;5073426;28;20253;-74
2022/12/09 02:48:31;;;;;;;24.30;17.73;;;0.50;99.90;;;;;;5072404;28;20224;-74
2022/12/09 02:50:57;;;;;;;25.60;18.60;;;0.60;99.90;;;;;;5072202;28;20190;-74
2022/12/09 02:53:24;;;;;;;21.90;17.83;;;0.60;99.90;;;;;;5076349;28;20200;-74
2022/12/09 02:55:53;;;;;;;25.70;18.27;;;0.70;99.90;;;;;;5076165;28;20197;-74
2022/12/09 03:01:57;;;;;;;25.33;16.70;;;1.00;99.90;;;;;;5077004;28;20197;-74
2022/12/09 03:04:26;;;;;;;20.77;15.83;;;1.20;99.90;;;;;;5075699;28;20245;-74
2022/12/09 03:06:53;;;;;;;21.53;16.73;;;1.30;99.90;;;;;;5076375;28;20243;-74
2022/12/09 03:09:24;;;;;;;24.73;16.97;;;1.30;99.90;;;;;;5075583;28;20178;-74
2022/12/09 03:11:51;;;;;;;22.03;17.03;;;1.40;99.90;;;;;;5076366;28;20184;-74
2022/12/09 03:14:25;;;;;;;19.00;15.93;;;1.50;99.90;;;;;;5077035;28;20177;-74
2022/12/09 03:17:12;;;;;;;20.10;16.23;;;1.50;99.90;;;;;;5076530;28;20205;-74
2022/12/09 03:19:43;;;;;;;21.43;16.93;;;1.50;99.90;;;;;;5076320;28;20180;-74
2022/12/09 03:22:14;;;;;;;23.00;17.40;;;1.40;99.90;;;;;;5076809;28;20197;-74
2022/12/09 03:24:45;;;;;;;22.20;17.77;;;1.20;99.90;;;;;;5076920;28;20192;-74
2022/12/09 03:27:15;;;;;;;23.53;17.37;;;1.10;99.90;;;;;;5075435;28;20671;-74
2022/12/09 03:29:45;;;;;;;22.37;17.63;;;1.10;99.90;;;;;;5075543;28;20164;-74
2022/12/09 03:32:14;;;;;;;21.63;16.67;;;1.10;99.90;;;;;;5075344;28;20728;-74
2022/12/09 03:34:42;;;;;;;19.33;15.83;;;1.20;99.90;;;;;;5075464;28;20173;-74
2022/12/09 03:37:10;;;;;;;22.47;16.80;;;1.40;99.90;;;;;;5075266;28;20204;-74
2022/12/09 03:39:37;;;;;;;22.00;17.70;;;1.50;99.90;;;;;;5075572;28;20173;-74
2022/12/09 03:42:13;;;;;;;24.10;17.73;;;1.30;99.90;;;;;;5075275;28;20174;-74
2022/12/09 03:44:49;;;;;;;22.00;17.37;;;1.30;99.90;;;;;;5076509;28;20157;-74
2022/12/09 03:47:15;;;;;;;19.87;15.67;;;1.50;99.90;;;;;;5076367;28;20181;-74
2022/12/09 03:49:41;;;;;;;21.27;16.67;;;1.60;99.90;;;;;;5076599;28;20280;-74
2022/12/09 03:52:21;;;;;;;18.83;16.00;;;1.60;99.90;;;;;;5074923;28;20228;-74
2022/12/09 03:54:53;;;;;;;21.80;16.83;;;1.60;99.90;;;;;;5076018;28;20170;-74
2022/12/09 03:57:20;;;;;;;22.90;17.27;;;1.60;99.90;;;;;;5074985;28;20201;-74
2022/12/09 03:59:58;;;;;;;23.33;17.63;;;1.60;99.90;;;;;;5074843;28;20181;-74
2022/12/09 04:02:24;;;;;;;25.83;19.23;;;1.60;99.90;;;;;;5075816;28;20165;-74
2022/12/09 04:04:50;;;;;;;21.40;17.00;;;1.40;99.90;;;;;;5074165;28;20173;-74
2022/12/09 04:07:16;;;;;;;20.93;16.50;;;1.50;99.90;;;;;;5074771;28;20284;-74
2022/12/09 04:09:42;;;;;;;22.90;18.20;;;1.50;99.90;;;;;;5074826;28;20180;-74
2022/12/09 04:12:08;;;;;;;20.53;17.33;;;1.50;99.90;;;;;;5074909;28;20177;-74
2022/12/09 04:14:34;;;;;;;22.10;16.93;;;1.50;99.90;;;;;;5075413;28;20628;-74
2022/12/09 04:17:34;;;;;;;23.30;17.33;;;1.50;99.90;;;;;;5074709;28;20251;-74
2022/12/09 04:20:00;;;;;;;21.13;17.27;;;1.40;99.90;;;;;;5074448;28;20272;-74
2022/12/09 04:22:26;;;;;;;25.50;16.97;;;1.40;99.90;;;;;;5074345;28;20213;-74
2022/12/09 04:24:51;;;;;;;23.87;17.57;;;1.40;99.90;;;;;;5075415;28;20180;-74
2022/12/09 04:27:17;;;;;;;23.70;18.17;;;1.30;99.90;;;;;;5074550;28;20189;-74
2022/12/09 04:29:42;;;;;;;27.53;20.53;;;1.30;99.90;;;;;;5074553;28;20223;-74
2022/12/09 04:32:08;;;;;;;32.43;22.90;;;1.30;99.90;;;;;;5074392;28;20174;-74
2022/12/09 04:34:33;;;;;;;23.60;18.70;;;1.40;99.90;;;;;;5074890;28;20227;-74
2022/12/09 04:36:59;;;;;;;29.37;19.13;;;1.40;99.90;;;;;;5073857;28;20206;-74
2022/12/09 04:39:24;;;;;;;23.97;18.07;;;1.50;99.90;;;;;;5074014;28;20663;-74
2022/12/09 04:41:50;;;;;;;27.93;19.30;;;1.30;99.90;;;;;;5075419;28;20651;-74
2022/12/09 04:44:15;;;;;;;24.13;18.03;;;1.30;99.90;;;;;;5075218;28;20617;-74
2022/12/09 04:46:41;;;;;;;24.87;19.10;;;1.40;99.90;;;;;;5074952;28;20668;-74
2022/12/09 04:49:07;;;;;;;23.60;18.90;;;1.40;99.90;;;;;;5075085;28;20181;-74
2022/12/09 04:51:32;;;;;;;20.47;17.03;;;1.40;99.90;;;;;;5074790;28;20219;-74
2022/12/09 04:53:58;;;;;;;20.73;16.27;;;1.50;99.90;;;;;;5074893;28;20188;-74
2022/12/09 04:56:23;;;;;;;21.77;16.50;;;1.60;99.90;;;;;;5074794;28;20567;-74
2022/12/09 04:58:50;;;;;;;20.43;17.07;;;1.70;99.90;;;;;;5073619;28;20339;-74
2022/12/09 05:01:18;;;;;;;20.80;16.37;;;1.70;99.90;;;;;;5073607;28;20178;-74
2022/12/09 05:03:48;;;;;;;24.37;18.13;;;1.70;99.90;;;;;;5073624;28;20181;-74
2022/12/09 05:06:14;;;;;;;24.13;18.20;;;1.50;99.90;;;;;;5074679;28;20162;-74
2022/12/09 05:08:41;;;;;;;25.33;17.87;;;1.50;99.90;;;;;;5073388;28;20229;-74
2022/12/09 05:11:07;;;;;;;21.30;17.43;;;1.50;99.90;;;;;;5073455;28;20185;-74
2022/12/09 05:13:32;;;;;;;22.57;17.23;;;1.60;99.90;;;;;;5074445;28;20184;-74
2022/12/09 05:16:04;;;;;;;24.13;18.63;;;1.60;99.90;;;;;;5072489;28;20201;-74
2022/12/09 05:18:30;;;;;;;21.33;17.37;;;1.70;99.90;;;;;;5073208;28;20208;-74
2022/12/09 05:20:55;;;;;;;24.00;18.63;;;1.70;99.90;;;;;;5073709;28;20174;-74
2022/12/09 05:23:21;;;;;;;21.87;16.57;;;1.70;99.90;;;;;;5073287;28;20173;-74
2022/12/09 05:25:47;;;;;;;25.00;18.17;;;1.70;99.90;;;;;;5073098;28;20189;-74
2022/12/09 05:28:12;;;;;;;24.87;17.87;;;1.80;99.90;;;;;;5074399;28;20309;-74
2022/12/09 05:30:38;;;;;;;23.13;18.17;;;1.80;99.90;;;;;;5073262;28;20186;-74
2022/12/09 05:33:04;;;;;;;23.87;18.30;;;1.80;99.90;;;;;;5074502;28;20194;-74
2022/12/09 05:35:30;;;;;;;24.03;18.57;;;1.80;99.90;;;;;;5073885;28;20663;-74
2022/12/09 05:37:56;;;;;;;23.43;19.07;;;1.70;99.90;;;;;;5073043;28;20307;-74
2022/12/09 05:40:22;;;;;;;25.57;19.57;;;1.60;99.90;;;;;;5074190;28;20185;-74
2022/12/09 05:42:47;;;;;;;24.77;19.03;;;1.50;99.90;;;;;;5074265;28;20215;-74
2022/12/09 05:45:13;;;;;;;24.77;19.37;;;1.40;99.90;;;;;;5072723;28;20212;-74
2022/12/09 05:47:39;;;;;;;28.23;21.03;;;1.30;99.90;;;;;;5073948;28;20237;-74
2022/12/09 05:50:06;;;;;;;28.20;20.87;;;1.20;99.90;;;;;;5073840;28;20196;-74
2022/12/09 05:52:34;;;;;;;26.27;20.23;;;1.30;99.90;;;;;;5074424;28;20213;-74
2022/12/09 05:55:01;;;;;;;25.80;19.93;;;1.30;99.90;;;;;;5073230;28;20507;-75
2022/12/09 05:57:27;;;;;;;27.10;20.07;;;1.30;99.90;;;;;;5072836;28;20208;-74
2022/12/09 05:59:52;;;;;;;24.77;19.63;;;1.30;99.90;;;;;;5073927;28;20177;-75
2022/12/09 06:02:18;;;;;;;31.30;22.60;;;1.40;99.90;;;;;;5073106;28;20180;-75
2022/12/09 06:04:43;;;;;;;60.37;34.07;;;1.40;99.90;;;;;;5072659;28;20170;-74
2022/12/09 06:07:09;;;;;;;52.37;32.23;;;1.40;99.90;;;;;;5072165;28;20690;-74
2022/12/09 06:09:34;;;;;;;37.17;25.83;;;1.50;99.90;;;;;;5074236;28;20177;-75
2022/12/09 06:12:00;;;;;;;29.83;21.77;;;1.50;99.90;;;;;;5072276;28;20170;-74
2022/12/09 06:14:25;;;;;;;24.40;19.67;;;1.60;99.90;;;;;;5073359;28;20173;-75
2022/12/09 06:20:13;;;;;;;25.00;19.53;;;1.60;99.90;;;;;;5054074;28;20171;-75
2022/12/09 06:22:39;;;;;;;25.03;18.30;;;1.60;99.90;;;;;;5052143;28;20201;-74
2022/12/09 06:25:05;;;;;;;22.60;17.57;;;1.60;99.90;;;;;;5052203;28;20218;-75
2022/12/09 06:27:30;;;;;;;23.07;17.23;;;1.50;99.90;;;;;;5053829;28;20198;-75
2022/12/09 06:29:56;;;;;;;15.83;12.70;;;1.40;99.90;;;;;;5053366;28;20170;-74
2022/12/09 06:32:21;;;;;;;16.90;13.90;;;1.30;99.90;;;;;;5052298;28;20182;-75
2022/12/09 06:34:47;;;;;;;19.13;15.17;;;1.30;99.90;;;;;;5052039;28;20204;-74
2022/12/09 06:37:14;;;;;;;16.97;14.73;;;1.30;99.90;;;;;;5051862;28;20222;-74
2022/12/09 06:39:40;;;;;;;15.30;11.83;;;1.30;99.90;;;;;;5051987;28;20196;-74
2022/12/09 06:42:06;;;;;;;13.33;11.67;;;1.30;99.90;;;;;;5051900;28;20181;-74
2022/12/09 06:44:31;;;;;;;15.23;12.27;;;1.30;99.90;;;;;;5052270;28;20178;-74
2022/12/09 06:46:57;;;;;;;16.87;13.40;;;1.20;99.90;;;;;;5051833;28;20236;-74
2022/12/09 06:49:23;;;;;;;16.47;13.27;;;1.10;99.90;;;;;;5052056;28;20201;-74
2022/12/09 06:55:10;;;;;;;14.67;11.53;;;1.30;99.90;;;;;;5053060;28;20691;-74
2022/12/09 06:57:36;;;;;;;16.37;13.93;;;1.40;99.90;;;;;;5051983;28;20198;-74
2022/12/09 07:00:04;;;;;;;20.27;16.07;;;1.50;99.90;;;;;;5051874;28;20384;-75
2022/12/09 07:02:29;;;;;;;20.43;17.13;;;1.40;99.90;;;;;;5051814;28;20175;-74
2022/12/09 07:05:01;;;;;;;22.37;17.20;;;1.40;99.90;;;;;;5053298;28;20253;-75
2022/12/09 07:07:31;;;;;;;20.27;14.97;;;1.60;99.90;;;;;;5051893;28;20195;-75
2022/12/09 07:10:00;;;;;;;15.97;13.77;;;1.70;99.90;;;;;;5053195;28;20159;-75
2022/12/09 07:12:28;;;;;;;20.10;15.57;;;1.70;99.90;;;;;;5051883;28;20178;-75
2022/12/09 07:15:08;;;;;;;28.77;22.30;;;1.70;99.90;;;;;;5071695;28;20607;-75
2022/12/09 07:17:34;;;;;;;50.77;35.63;;;1.60;99.90;;;;;;5072245;28;20235;-76
2022/12/09 07:20:00;;;;;;;79.70;49.83;;;1.60;99.90;;;;;;5071808;28;20216;-76
2022/12/09 07:22:40;;;;;;;147.47;97.63;;;1.50;99.90;;;;;;5071613;28;20235;-76
2022/12/09 07:25:07;;;;;;;112.37;73.90;;;1.70;99.90;;;;;;5073768;28;20162;-75
2022/12/09 07:27:49;;;;;;;90.30;55.57;;;1.70;99.90;;;;;;5071481;28;20208;-75
2022/12/09 07:30:15;;;;;;;84.37;54.23;;;1.70;99.90;;;;;;5072535;28;20178;-75
2022/12/09 07:32:53;;;;;;;53.13;34.07;;;1.70;99.90;;;;;;5073925;28;20546;-75
2022/12/09 07:35:19;;;;;;;33.40;24.13;;;1.70;99.90;;;;;;5073553;28;20667;-75
2022/12/09 07:37:45;;;;;;;25.37;18.30;;;1.70;99.90;;;;;;5074542;28;20202;-75
2022/12/09 07:40:10;;;;;;;28.93;22.37;;;1.70;99.90;;;;;;5075264;28;20201;-75
2022/12/09 07:42:36;;;;;;;22.67;18.27;;;1.70;99.90;;;;;;5078233;28;20241;-75
2022/12/09 07:45:05;;;;;;;25.20;19.80;;;1.80;99.90;;;;;;5077352;28;20181;-75
2022/12/09 07:47:31;;;;;;;22.67;18.30;;;1.80;99.90;;;;;;5077173;28;20194;-75
2022/12/09 07:49:57;;;;;;;19.47;16.67;;;1.80;99.90;;;;;;5078953;28;20204;-75
2022/12/09 07:52:23;;;;;;;18.77;15.60;;;1.80;99.90;;;;;;5077313;28;20181;-75
2022/12/09 07:54:48;;;;;;;22.37;16.23;;;1.90;99.90;;;;;;5074723;28;20181;-75
2022/12/09 08:00:36;;;;;;;19.13;15.90;;;1.80;99.90;;;;;;5075898;28;20207;-75
2022/12/09 08:03:02;;;;;;;20.50;16.60;;;1.80;99.90;;;;;;5075060;28;20542;-75
2022/12/09 08:05:27;;;;;;;19.93;16.90;;;1.80;99.90;;;;;;5074767;28;20185;-75
2022/12/09 08:07:53;;;;;;;31.40;16.73;;;1.70;99.90;;;;;;5076175;28;20205;-75
2022/12/09 08:10:18;;;;;;;170.70;28.97;;;1.70;99.90;;;;;;5074691;28;20178;-75
2022/12/09 08:12:44;;;;;;;192.17;33.07;;;1.70;99.90;;;;;;5074630;28;20213;-75
2022/12/09 08:15:09;;;;;;;50.43;19.07;;;1.80;99.90;;;;;;5074542;28;20209;-75
2022/12/09 08:17:35;;;;;;;27.30;16.40;;;1.70;99.90;;;;;;5074389;28;20197;-75
2022/12/09 08:20:01;;;;;;;38.07;17.23;;;1.70;99.90;;;;;;5073413;28;20558;-75
2022/12/09 08:22:26;;;;;;;42.70;17.63;;;1.70;99.90;;;;;;5054317;28;20597;-75
2022/12/09 08:24:52;;;;;;;25.17;17.23;;;1.70;99.90;;;;;;5054365;28;20179;-75
2022/12/09 08:27:20;;;;;;;27.87;17.13;;;1.70;99.90;;;;;;5054249;28;20202;-75
2022/12/09 08:29:46;;;;;;;19.67;15.43;;;1.60;99.90;;;;;;5055098;28;20245;-75
2022/12/09 08:32:11;;;;;;;21.60;15.50;;;1.60;99.90;;;;;;5054921;28;20664;-75
2022/12/09 08:35:01;;;;;;;20.10;16.20;;;1.50;99.90;;;;;;5054474;28;20629;-75
2022/12/09 08:38:00;;;;;;;19.37;16.90;;;1.40;99.90;;;;;;5054027;28;20214;-75
2022/12/09 08:40:25;;;;;;;19.33;16.23;;;1.30;99.90;;;;;;5054881;28;20162;-75
2022/12/09 08:42:51;;;;;;;18.13;15.57;;;1.20;99.90;;;;;;5055056;28;20244;-75
2022/12/09 08:45:16;;;;;;;18.90;16.37;;;1.20;99.90;;;;;;5053769;28;20182;-75
2022/12/09 08:47:52;;;;;;;20.23;17.30;;;1.20;99.90;;;;;;5053651;28;20198;-75
2022/12/09 08:50:21;;;;;;;23.87;18.83;;;1.20;99.90;;;;;;5054309;28;20229;-74
2022/12/09 08:53:05;;;;;;;22.77;16.87;;;1.30;99.90;;;;;;5055507;28;20174;-75
2022/12/09 08:55:30;;;;;;;19.20;16.03;;;1.30;99.90;;;;;;5054024;28;20194;-74
2022/12/09 08:57:56;;;;;;;18.27;15.53;;;1.30;99.90;;;;;;5055063;28;20280;-74
2022/12/09 09:00:22;;;;;;;21.37;16.53;;;1.30;99.90;;;;;;5054728;28;20656;-75
2022/12/09 09:02:48;;;;;;;88.43;22.70;;;1.30;99.90;;;;;;5053440;28;20374;-75
2022/12/09 09:05:13;;;;;;;40.87;19.90;;;1.30;99.90;;;;;;5054282;28;20182;-75
2022/12/09 09:08:10;;;;;;;39.50;20.10;;;1.30;99.90;;;;;;5053596;28;20194;-74
2022/12/09 09:10:36;;;;;;;29.37;17.67;;;1.40;99.90;;;;;;5052535;28;20169;-75
2022/12/09 09:13:01;;;;;;;45.57;20.13;;;1.40;99.90;;;;;;5054403;28;20175;-74
2022/12/09 09:15:27;;;;;;;69.60;23.73;;;1.50;99.90;;;;;;5054590;28;20228;-75
2022/12/09 09:17:52;;;;;;;30.10;22.20;;;1.50;99.90;;;;;;5052581;28;20194;-75
2022/12/09 09:20:18;;;;;;;39.33;23.50;;;1.50;99.90;;;;;;5051206;28;20190;-75
2022/12/09 09:22:44;;;;;;;48.80;23.27;;;1.50;99.90;;;;;;5051910;28;20174;-75
2022/12/09 09:25:09;;;;;;;35.57;25.70;;;1.60;99.90;;;;;;5052226;28;20178;-75
2022/12/09 09:27:36;;;;;;;43.87;23.17;;;1.70;99.90;;;;;;5052778;28;20229;-75
2022/12/09 09:30:02;;;;;;;22.87;17.83;;;1.60;99.90;;;;;;5052730;28;20269;-75
2022/12/09 09:35:57;;;;;;;25.60;21.30;;;1.50;99.90;;;;;;5054074;28;20255;-75
2022/12/09 09:38:24;;;;;;;25.77;22.47;;;1.60;99.90;;;;;;5052794;28;20690;-75
2022/12/09 09:40:49;;;;;;;28.63;22.50;;;1.60;99.90;;;;;;5053031;28;20189;-75
2022/12/09 09:43:18;;;;;;;30.07;22.57;;;1.70;99.90;;;;;;5054198;28;20178;-75
2022/12/09 09:49:11;;;;;;;26.53;19.77;;;1.60;99.90;;;;;;5062050;28;20197;-75
2022/12/09 09:51:37;;;;;;;23.80;18.80;;;1.60;99.90;;;;;;5061428;28;20182;-75
2022/12/09 09:54:02;;;;;;;23.47;18.77;;;1.70;99.90;;;;;;5069562;28;20310;-75
2022/12/09 09:56:36;;;;;;;22.27;17.57;;;1.80;99.90;;;;;;5072186;28;20212;-76
2022/12/09 09:59:33;;;;;;;18.93;16.23;;;1.80;99.90;;;;;;5073021;28;20180;-75
2022/12/09 10:02:10;;;;;;;18.00;15.00;;;1.90;99.90;;;;;;5057235;28;20233;-75
2022/12/09 10:05:18;;;;;;;19.80;15.57;;;2.00;99.90;;;;;;5069029;28;20201;-75
2022/12/09 10:07:50;;;;;;;19.37;16.10;;;2.10;99.90;;;;;;5031593;28;20198;-75
2022/12/09 10:10:49;;;;;;;19.23;15.10;;;2.10;99.90;;;;;;5064587;28;20212;-75
2022/12/09 10:13:56;;;;;;;15.93;14.17;;;2.10;99.90;;;;;;5065563;28;20166;-75
2022/12/09 10:16:31;;;;;;;18.20;15.27;;;2.10;99.90;;;;;;5070135;28;20185;-75
2022/12/09 10:19:29;;;;;;;21.13;15.70;;;2.10;99.90;;;;;;5058577;28;20169;-75
2022/12/09 10:22:29;;;;;;;19.80;14.47;;;2.20;99.90;;;;;;5072433;28;20183;-75
2022/12/09 10:25:33;;;;;;;44.07;16.90;;;2.20;99.90;;;;;;5088428;28;20177;-75
2022/12/09 10:31:37;;;;;;;58.27;31.53;;;2.20;99.90;;;;;;5061193;28;20165;-75
2022/12/09 10:34:03;;;;;;;82.27;41.53;;;2.20;99.90;;;;;;5072277;28;20181;-75
2022/12/09 10:36:30;;;;;;;107.20;35.60;;;2.20;99.90;;;;;;5075846;28;20216;-75
2022/12/09 10:38:58;;;;;;;217.47;38.50;;;2.30;99.90;;;;;;5068941;28;20183;-75
2022/12/09 10:44:26;;;;;;;166.23;32.43;;;2.30;99.90;;;;;;5073739;28;20206;-75
2022/12/09 10:47:14;;;;;;;103.40;25.10;;;2.50;99.90;;;;;;5072250;28;20197;-75
2022/12/09 10:49:41;;;;;;;113.00;24.67;;;2.50;99.90;;;;;;5072352;28;20201;-75
2022/12/09 10:52:07;;;;;;;184.30;29.10;;;2.60;99.90;;;;;;5079879;28;20276;-75
2022/12/09 10:54:46;;;;;;;96.27;21.97;;;2.80;99.90;;;;;;5057468;28;20224;-75
2022/12/09 10:57:15;;;;;;;129.70;27.20;;;2.90;99.90;;;;;;5057290;28;20264;-75
2022/12/09 10:59:54;;;;;;;83.57;18.93;;;3.10;99.90;;;;;;5072443;28;20246;-75
2022/12/09 11:02:20;;;;;;;108.50;21.47;;;3.20;99.90;;;;;;5079083;28;20180;-75
2022/12/09 11:04:46;;;;;;;334.23;40.20;;;3.40;99.90;;;;;;5071723;28;20190;-75
2022/12/09 11:07:12;;;;;;;139.10;23.10;;;3.50;99.90;;;;;;5088470;28;20205;-75
2022/12/09 11:09:43;;;;;;;250.17;32.63;;;3.80;99.90;;;;;;5071755;28;20181;-76
2022/12/09 11:13:02;;;;;;;170.07;27.27;;;4.00;99.90;;;;;;5073114;28;20196;-76
2022/12/09 11:15:41;;;;;;;90.93;20.87;;;4.20;99.90;;;;;;5075962;28;20289;-75
2022/12/09 11:18:31;;;;;;;47.33;15.50;;;4.30;99.90;;;;;;5092945;28;20201;-75
2022/12/09 11:21:03;;;;;;;17.77;11.07;;;4.30;99.90;;;;;;5092508;28;20169;-76
2022/12/09 11:23:52;;;;;;;26.33;12.77;;;4.40;99.90;;;;;;5093092;28;20182;-76
2022/12/09 11:26:32;;;;;;;40.27;14.07;;;4.40;99.90;;;;;;5092669;28;20585;-76
2022/12/09 11:29:13;;;;;;;103.53;19.63;;;4.40;99.90;;;;;;5076944;28;20170;-76
2022/12/09 11:35:00;;;;;;;112.87;22.67;;;4.50;99.90;;;;;;5076985;28;20223;-76
2022/12/09 11:41:10;;;;;;;15.97;12.00;;;4.60;99.90;;;;;;5076844;28;20236;-76
2022/12/09 11:43:42;;;;;;;16.80;11.80;;;4.60;99.90;;;;;;5076594;28;20170;-75
2022/12/09 11:46:11;;;;;;;18.33;12.40;;;4.60;99.90;;;;;;5093460;28;20177;-76
2022/12/09 11:48:38;;;;;;;17.03;11.93;;;4.60;99.90;;;;;;5076629;28;20219;-76
2022/12/09 11:51:05;;;;;;;17.00;12.13;;;4.50;99.90;;;;;;5092366;28;20197;-76
2022/12/09 11:53:33;;;;;;;13.50;11.30;;;4.60;99.90;;;;;;5092402;28;20190;-75
2022/12/09 11:56:24;;;;;;;12.43;11.07;;;4.60;99.90;;;;;;5092107;28;20952;-75
2022/12/09 11:59:13;;;;;;;12.60;10.80;;;4.80;99.90;;;;;;5091975;28;20202;-75
2022/12/09 12:02:15;;;;;;;14.30;11.00;;;4.90;99.90;;;;;;5092839;28;20181;-76
2022/12/09 12:04:56;;;;;;;23.30;11.60;;;4.90;99.90;;;;;;5075180;28;20635;-76
2022/12/09 12:07:51;;;;;;;21.90;11.90;;;5.10;99.90;;;;;;5091726;28;20201;-76
2022/12/09 12:10:23;;;;;;;15.90;11.27;;;5.10;99.90;;;;;;5092140;28;20178;-76
2022/12/09 12:16:25;;;;;;;12.13;10.70;;;5.20;99.90;;;;;;5062765;28;20241;-76
2022/12/09 12:19:28;;;;;;;11.67;10.50;;;5.20;99.90;;;;;;5055779;28;20715;-76
2022/12/09 12:22:28;;;;;;;12.37;9.63;;;5.20;99.90;;;;;;5055810;28;20593;-76
2022/12/09 12:25:26;;;;;;;11.20;9.80;;;5.20;99.90;;;;;;5054946;28;20170;-76
2022/12/09 12:28:08;;;;;;;11.23;9.73;;;5.00;99.90;;;;;;5054988;28;20198;-76
2022/12/09 12:31:10;;;;;;;10.33;9.27;;;4.90;99.90;;;;;;5062276;28;20166;-75
2022/12/09 12:33:57;;;;;;;11.13;9.57;;;4.90;99.90;;;;;;5075321;28;20161;-75
2022/12/09 12:36:53;;;;;;;9.20;8.00;;;4.80;99.90;;;;;;5074474;28;20201;-76
2022/12/09 12:46:15;;;;;;;14.67;12.47;;;4.80;99.90;;;;;;5055529;28;20169;-74
2022/12/09 12:46:27;;;;;;;9.63;7.77;;;4.90;99.90;;;;;;5061591;28;20183;-76
2022/12/09 12:49:24;;;;;;;11.67;10.23;;;4.80;99.90;;;;;;5061747;28;20217;-75
2022/12/09 12:51:53;;;;;;;15.27;12.53;;;4.80;99.90;;;;;;5072431;28;20219;-75
2022/12/09 12:55:04;;;;;;;13.70;11.40;;;4.70;99.90;;;;;;5057232;28;20249;-75
2022/12/09 12:57:50;;;;;;;13.43;9.80;;;4.60;99.90;;;;;;5062271;28;20260;-75
2022/12/09 13:00:47;;;;;;;9.43;8.43;;;4.50;99.90;;;;;;5087020;28;20198;-75
2022/12/09 13:03:35;;;;;;;9.73;8.73;;;4.40;99.90;;;;;;5074516;28;20269;-75
2022/12/09 13:06:01;;;;;;;13.47;10.07;;;4.40;99.90;;;;;;5059016;28;20182;-77
2022/12/09 13:08:36;;;;;;;10.00;9.00;;;4.40;99.90;;;;;;5072105;28;20262;-76
2022/12/09 13:11:28;;;;;;;13.80;9.70;;;4.40;99.90;;;;;;5073552;28;20187;-76
2022/12/09 13:13:58;;;;;;;11.53;8.70;;;4.40;99.90;;;;;;5036661;28;20284;-76
2022/12/09 13:16:41;;;;;;;9.60;8.63;;;4.30;99.90;;;;;;5068709;28;20209;-76
2022/12/09 13:19:29;;;;;;;16.13;9.30;;;4.30;99.90;;;;;;5058957;28;20188;-76
2022/12/09 13:22:00;;;;;;;60.37;15.27;;;4.30;99.90;;;;;;5073610;28;20173;-78
2022/12/09 13:24:41;;;;;;;74.23;16.73;;;4.20;99.90;;;;;;5073112;28;20190;-76
2022/12/09 13:27:40;;;;;;;32.57;10.40;;;4.30;99.90;;;;;;5063664;28;20197;-76
2022/12/09 13:30:12;;;;;;;14.63;8.97;;;4.30;99.90;;;;;;5074072;28;20197;-77
2022/12/09 13:33:17;;;;;;;17.33;9.47;;;4.10;99.90;;;;;;5072866;28;20193;-76
2022/12/09 13:36:21;;;;;;;9.67;8.37;;;4.10;99.90;;;;;;5069829;28;20209;-79
2022/12/09 13:38:49;;;;;;;8.67;7.77;;;4.20;99.90;;;;;;5071968;28;20706;-75
2022/12/09 13:42:51;;;;;;;8.20;7.40;;;4.10;99.90;;;;;;5067452;28;20178;-75
2022/12/09 13:44:17;;;;;;;10.77;8.00;;;4.00;99.90;;;;;;5053807;28;20229;-75